NC49 weather

Boyd Field
Grimesland, North Carolina, United States

Public forecast

Using degrees Fahrenheit for public forecast. Weather courtesy of forecast.io.

METAR (pilot weather report)

Closest report is Warren Field, 7.6 nm (14.1 km) ENE. Retrieved 2019/04/20 00:40 UTC (0 seconds ago):

KOCW 200040Z AUTO 19006KT 10SM SCT044 BKN055 BKN075 19/18 A2970 RMK AO2 P0002 T01930176

TAF (pilot weather forecast)

Forecast is more than 12 hours old.

Closest forecast is Pitt Greenville Airport, 11.2 nm (20.8 km) NW. Retrieved 2019/04/19 00:42 UTC (24 hours ago):

TAF KPGV 192338Z 2000/2024 17018G30KT P6SM VCSH SCT004 BKN007 OVC013 FM200600 19013G20KT 6SM -SHRA OVC050 FM200900 21011G18KT P6SM SCT050 FM201000 21010KT P6SM SCT120 FM201300 21012G20KT P6SM FEW250 FM202300 19010KT P6SM SCT200 AMD LTD TO CLD VIS AND WIND